createdAt,value
2022-08-12T00:02:48.384Z,32.80
2022-08-12T00:05:34.976Z,33.00
2022-08-12T00:08:30.963Z,33.10
2022-08-12T00:11:22.791Z,33.10
2022-08-12T00:14:08.796Z,33.20
2022-08-12T00:16:56.381Z,33.40
2022-08-12T00:19:41.952Z,33.60
2022-08-12T00:22:29.328Z,33.60
2022-08-12T00:26:01.431Z,33.70
2022-08-12T00:28:30.405Z,34.00
2022-08-12T00:31:15.962Z,33.70
2022-08-12T00:34:01.370Z,33.90
2022-08-12T00:36:48.906Z,33.90
2022-08-12T00:39:36.275Z,34.10
2022-08-12T00:42:13.386Z,34.30
2022-08-12T00:44:43.441Z,34.40
2022-08-12T00:47:24.158Z,34.60
2022-08-12T00:49:53.255Z,34.60
2022-08-12T00:52:20.731Z,34.60
2022-08-12T00:54:59.312Z,34.80
2022-08-12T00:57:28.884Z,35.10
2022-08-12T00:59:57.179Z,35.00
2022-08-12T01:02:29.953Z,35.00
2022-08-12T01:06:08.956Z,35.30
2022-08-12T01:08:54.660Z,35.50
2022-08-12T01:11:32.842Z,35.40
2022-08-12T01:14:01.646Z,35.30
2022-08-12T01:16:29.388Z,35.60
2022-08-12T01:18:57.866Z,35.70
2022-08-12T01:21:27.946Z,35.90
2022-08-12T01:24:31.444Z,36.20
2022-08-12T01:27:01.442Z,36.40
2022-08-12T01:29:34.136Z,36.20
2022-08-12T01:32:06.510Z,36.50
2022-08-12T01:34:39.478Z,36.60
2022-08-12T01:37:07.752Z,35.80
2022-08-12T01:40:36.149Z,35.80
2022-08-12T01:42:34.166Z,36.60
2022-08-12T01:45:03.146Z,36.80
2022-08-12T01:47:43.190Z,36.80
2022-08-12T01:50:26.613Z,36.90
2022-08-12T01:53:10.659Z,37.20
2022-08-12T01:55:45.185Z,37.20
2022-08-12T01:58:55.477Z,37.30
2022-08-12T02:01:30.574Z,37.40
2022-08-12T02:04:43.011Z,37.20
2022-08-12T02:07:56.058Z,37.50
2022-08-12T02:10:49.327Z,37.40
2022-08-12T02:13:33.233Z,37.30
2022-08-12T02:16:30.480Z,37.50
2022-08-12T02:19:03.319Z,37.70
2022-08-12T02:22:14.852Z,37.60
2022-08-12T02:24:42.588Z,37.60
2022-08-12T02:27:12.836Z,37.20
2022-08-12T02:29:43.029Z,37.60
2022-08-12T02:32:10.504Z,37.70
2022-08-12T02:34:37.973Z,37.70
2022-08-12T02:37:09.030Z,37.80
2022-08-12T02:39:37.390Z,37.70
2022-08-12T02:42:07.114Z,37.90
2022-08-12T02:44:40.408Z,38.00
2022-08-12T02:47:58.093Z,38.00
2022-08-12T02:49:58.479Z,38.10
2022-08-12T02:52:27.523Z,37.90
2022-08-12T02:55:01.529Z,38.00
2022-08-12T02:57:31.797Z,38.10
2022-08-12T03:00:02.950Z,38.00
2022-08-12T03:02:31.923Z,38.10
2022-08-12T03:05:01.425Z,38.30
2022-08-12T03:07:55.931Z,38.40
2022-08-12T03:10:37.300Z,38.60
2022-08-12T03:13:07.487Z,38.40
2022-08-12T03:15:35.846Z,38.50
2022-08-12T03:18:24.532Z,38.50
2022-08-12T03:20:56.803Z,38.70
2022-08-12T03:23:29.903Z,38.90
2022-08-12T03:26:01.756Z,39.10
2022-08-12T03:28:50.540Z,39.20
2022-08-12T03:31:29.809Z,39.30
2022-08-12T03:34:03.581Z,39.40
2022-08-12T03:36:35.409Z,39.40
2022-08-12T03:39:18.571Z,39.40
2022-08-12T03:41:59.287Z,39.40
2022-08-12T03:45:04.101Z,39.60
2022-08-12T03:48:01.858Z,39.70
2022-08-12T03:50:48.720Z,39.90
2022-08-12T03:53:40.556Z,39.70
2022-08-12T03:56:26.078Z,39.80
2022-08-12T03:59:13.557Z,39.80
2022-08-12T04:01:41.304Z,39.90
2022-08-12T04:04:11.457Z,40.00
2022-08-12T04:06:45.351Z,40.10
2022-08-12T04:09:15.794Z,40.20
2022-08-12T04:12:04.383Z,40.10
2022-08-12T04:14:32.596Z,40.10
2022-08-12T04:17:00.702Z,40.30
2022-08-12T04:19:28.641Z,40.30
2022-08-12T04:22:01.953Z,40.40
2022-08-12T04:24:35.643Z,40.40
2022-08-12T04:27:05.551Z,40.80
2022-08-12T04:30:16.556Z,40.20
2022-08-12T04:32:21.601Z,40.60
2022-08-12T04:34:49.048Z,40.70
2022-08-12T04:37:16.754Z,40.70
2022-08-12T04:39:45.991Z,40.90
2022-08-12T04:42:13.460Z,41.00
2022-08-12T04:44:46.802Z,41.00
2022-08-12T04:47:36.228Z,41.20
2022-08-12T04:50:35.324Z,41.30
2022-08-12T04:53:46.580Z,41.30
2022-08-12T04:56:16.661Z,41.40
2022-08-12T04:58:43.939Z,41.40
2022-08-12T05:01:11.859Z,41.40
2022-08-12T05:03:45.864Z,41.50
2022-08-12T05:06:17.031Z,41.50
2022-08-12T05:08:55.635Z,41.60
2022-08-12T05:11:24.917Z,41.70
2022-08-12T05:14:01.063Z,41.80
2022-08-12T05:16:31.138Z,42.00
2022-08-12T05:19:01.247Z,42.00
2022-08-12T05:21:29.765Z,42.10
2022-08-12T05:23:56.984Z,42.20
2022-08-12T05:26:23.929Z,42.20
2022-08-12T05:28:54.219Z,42.30
2022-08-12T05:31:40.476Z,42.50
2022-08-12T05:34:14.805Z,42.50
2022-08-12T05:36:44.213Z,42.70
2022-08-12T05:39:13.446Z,42.80
2022-08-12T05:41:41.598Z,43.00
2022-08-12T05:44:13.542Z,43.60
2022-08-12T05:46:41.328Z,43.10
2022-08-12T05:49:09.277Z,43.00
2022-08-12T05:51:40.545Z,43.10
2022-08-12T05:54:09.650Z,43.30
2022-08-12T05:56:36.767Z,43.40
2022-08-12T05:59:09.437Z,43.50
2022-08-12T06:02:08.985Z,43.60
2022-08-12T06:04:24.283Z,43.70
2022-08-12T06:06:53.549Z,43.80
2022-08-12T06:09:22.713Z,43.80
2022-08-12T06:11:59.887Z,43.90
2022-08-12T06:14:36.911Z,44.00
2022-08-12T06:17:05.900Z,44.00
2022-08-12T06:20:26.907Z,44.00
2022-08-12T06:22:20.347Z,44.10
2022-08-12T06:24:49.900Z,44.20
2022-08-12T06:27:19.116Z,44.30
2022-08-12T06:30:09.844Z,44.40
2022-08-12T06:32:38.288Z,44.40
2022-08-12T06:35:27.171Z,44.40
2022-08-12T06:38:03.911Z,44.30
2022-08-12T06:40:49.296Z,44.30
2022-08-12T06:43:16.324Z,44.30
2022-08-12T06:45:47.462Z,44.30
2022-08-12T06:48:14.772Z,44.30
2022-08-12T06:50:42.545Z,44.10
2022-08-12T06:53:11.402Z,44.10
2022-08-12T06:55:56.657Z,43.90
2022-08-12T06:58:25.535Z,43.90
2022-08-12T07:00:52.693Z,43.80
2022-08-12T07:03:25.768Z,43.70
2022-08-12T07:05:53.352Z,43.30
2022-08-12T07:08:21.188Z,43.20
2022-08-12T07:10:59.195Z,42.70
2022-08-12T07:14:02.613Z,42.20
2022-08-12T07:16:50.828Z,41.80
2022-08-12T07:19:18.402Z,41.30
2022-08-12T07:22:00.387Z,40.80
2022-08-12T07:24:30.596Z,40.10
2022-08-12T07:26:58.069Z,39.50
2022-08-12T07:29:57.898Z,38.90
2022-08-12T07:32:16.340Z,38.10
2022-08-12T07:34:44.635Z,37.40
2022-08-12T07:37:22.377Z,36.80
2022-08-12T07:39:59.404Z,36.10
2022-08-12T07:42:28.557Z,35.40
2022-08-12T07:44:56.546Z,34.70
2022-08-12T07:47:24.540Z,34.10
2022-08-12T07:50:05.461Z,33.30
2022-08-12T07:52:47.061Z,32.90
2022-08-12T07:55:15.819Z,32.20
2022-08-12T07:58:00.773Z,31.90
2022-08-12T08:00:32.265Z,30.80
2022-08-12T08:02:59.758Z,30.20
2022-08-12T08:05:40.520Z,30.00
2022-08-12T08:08:17.917Z,29.70
2022-08-12T08:10:46.410Z,29.40
2022-08-12T08:13:15.420Z,29.20
2022-08-12T08:16:02.443Z,29.10
2022-08-12T08:18:31.422Z,28.90
2022-08-12T08:20:58.663Z,28.80
2022-08-12T08:23:56.339Z,28.40
2022-08-12T08:26:26.611Z,28.20
2022-08-12T08:28:54.650Z,27.70
2022-08-12T08:31:25.186Z,27.70
2022-08-12T08:34:09.762Z,28.30
2022-08-12T08:36:41.831Z,27.90
2022-08-12T08:39:21.822Z,27.80
2022-08-12T08:42:19.111Z,27.80
2022-08-12T08:44:49.787Z,28.20
2022-08-12T08:47:24.724Z,27.60
2022-08-12T08:49:51.719Z,27.50
2022-08-12T08:52:39.484Z,27.40
2022-08-12T08:55:14.151Z,27.30
2022-08-12T08:57:44.710Z,27.50
2022-08-12T09:00:17.727Z,27.60
2022-08-12T09:02:58.463Z,27.10
2022-08-12T09:05:43.035Z,27.50
2022-08-12T09:08:26.615Z,27.10
2022-08-12T09:16:35.592Z,27.30
2022-08-12T09:19:27.735Z,26.90
2022-08-12T09:22:02.517Z,27.00
2022-08-12T09:24:33.014Z,26.70
2022-08-12T09:27:00.217Z,26.70
2022-08-12T09:30:11.804Z,26.30
2022-08-12T09:32:56.442Z,24.50
2022-08-12T09:35:04.103Z,25.40
2022-08-12T09:37:55.087Z,25.10
2022-08-12T09:41:03.813Z,24.40
2022-08-12T09:43:36.352Z,24.60
2022-08-12T09:46:20.396Z,24.30
2022-08-12T09:48:56.338Z,23.50
2022-08-12T09:51:24.441Z,22.70
2022-08-12T09:54:08.976Z,21.80
2022-08-12T09:57:03.182Z,22.40
2022-08-12T10:00:16.634Z,21.40
2022-08-12T10:02:45.787Z,21.00
2022-08-12T10:05:17.986Z,21.00
2022-08-12T10:07:47.817Z,21.00
2022-08-12T10:10:23.968Z,20.20
2022-08-12T10:13:33.964Z,19.80
2022-08-12T10:16:05.066Z,19.40
2022-08-12T10:18:35.258Z,18.90
2022-08-12T10:21:14.882Z,19.30
2022-08-12T10:23:46.124Z,18.80
2022-08-12T10:26:39.267Z,18.60
2022-08-12T10:30:03.118Z,18.20
2022-08-12T10:32:45.315Z,17.50
2022-08-12T10:38:44.719Z,16.40
2022-08-12T10:41:57.701Z,16.60
2022-08-12T10:50:03.079Z,16.10
2022-08-12T10:56:21.371Z,14.90
2022-08-12T10:59:11.970Z,15.10
2022-08-12T11:04:26.255Z,15.50
2022-08-12T11:04:54.249Z,15.50
2022-08-12T11:12:36.913Z,14.20
2022-08-12T11:15:18.581Z,14.60
2022-08-12T11:17:57.668Z,14.10
2022-08-12T11:28:34.916Z,13.50
2022-08-12T11:32:01.899Z,13.60
2022-08-12T11:37:59.228Z,12.90
2022-08-12T11:40:29.428Z,12.70
2022-08-12T11:43:17.879Z,13.00
2022-08-12T11:45:47.103Z,12.90
2022-08-12T11:48:15.184Z,12.40
2022-08-12T11:50:46.419Z,12.00
2022-08-12T11:53:57.522Z,11.90
2022-08-12T11:56:05.174Z,11.80
2022-08-12T12:00:24.004Z,11.90
2022-08-12T12:02:01.609Z,11.70
2022-08-12T12:04:25.887Z,11.70
2022-08-12T12:07:07.257Z,11.90
2022-08-12T12:09:52.393Z,11.80
2022-08-12T12:12:21.553Z,11.70
2022-08-12T12:19:02.062Z,11.70
2022-08-12T12:21:48.712Z,11.60
2022-08-12T12:24:29.983Z,11.20
2022-08-12T12:27:01.663Z,11.30
2022-08-12T12:30:19.681Z,11.30
2022-08-12T12:32:29.074Z,11.30
2022-08-12T12:35:14.271Z,11.30
2022-08-12T12:38:03.558Z,11.60
2022-08-12T12:40:32.983Z,11.50
2022-08-12T12:43:05.467Z,11.20
2022-08-12T12:45:35.712Z,10.80
2022-08-12T12:48:04.336Z,11.10
2022-08-12T12:50:51.096Z,11.20
2022-08-12T12:54:05.330Z,11.10
2022-08-12T12:56:15.656Z,11.00
2022-08-12T12:58:43.884Z,11.30
2022-08-12T13:01:27.866Z,10.90
2022-08-12T13:04:02.052Z,10.70
2022-08-12T13:06:31.804Z,10.30
2022-08-12T13:09:03.055Z,10.50
2022-08-12T13:11:32.723Z,10.70
2022-08-12T13:14:13.047Z,10.60
2022-08-12T13:16:57.733Z,10.60
2022-08-12T13:19:38.938Z,10.70
2022-08-12T13:22:20.363Z,10.50
2022-08-12T13:24:54.554Z,10.40
2022-08-12T13:27:22.622Z,10.30
2022-08-12T13:29:49.846Z,10.50
2022-08-12T13:32:30.687Z,10.50
2022-08-12T13:35:04.313Z,10.70
2022-08-12T13:37:55.287Z,10.50
2022-08-12T13:40:26.685Z,10.20
2022-08-12T13:42:58.103Z,10.10
2022-08-12T13:45:32.025Z,10.10
2022-08-12T13:48:08.098Z,10.30
2022-08-12T13:59:26.707Z,10.40
2022-08-12T14:18:56.349Z,10.30
2022-08-12T14:30:24.191Z,10.50
2022-08-12T14:32:56.877Z,10.80
2022-08-12T14:35:24.512Z,10.70
2022-08-12T14:37:57.475Z,10.30
2022-08-12T14:40:31.723Z,10.40
2022-08-12T14:42:59.132Z,10.50
2022-08-12T14:45:45.255Z,10.60
2022-08-12T14:48:16.274Z,10.60
2022-08-12T14:51:09.843Z,10.70
2022-08-12T14:59:56.875Z,10.60
2022-08-12T15:02:20.020Z,10.50
2022-08-12T15:04:55.932Z,10.10
2022-08-12T15:07:33.868Z,10.20
2022-08-12T15:10:11.071Z,10.20
2022-08-12T15:12:40.537Z,10.20
2022-08-12T15:15:10.324Z,10.40
2022-08-12T15:17:43.358Z,10.50
2022-08-12T15:20:32.721Z,10.10
2022-08-12T15:23:17.943Z,10.00
2022-08-12T15:25:59.825Z,9.30
2022-08-12T15:28:33.814Z,9.50
2022-08-12T15:31:02.444Z,9.60
2022-08-12T15:33:44.717Z,9.20
2022-08-12T15:36:54.962Z,9.20
2022-08-12T15:39:37.275Z,9.30
2022-08-12T15:42:04.795Z,9.10
2022-08-12T15:44:42.155Z,9.20
2022-08-12T15:47:10.301Z,9.30
2022-08-12T15:49:54.760Z,9.50
2022-08-12T15:52:28.331Z,9.70
2022-08-12T15:54:58.388Z,10.00
2022-08-12T15:57:27.350Z,10.10
2022-08-12T16:00:09.304Z,10.20
2022-08-12T16:02:51.285Z,10.40
2022-08-12T16:06:19.372Z,10.60
2022-08-12T16:08:19.806Z,10.90
2022-08-12T16:10:53.087Z,10.80
2022-08-12T16:13:32.202Z,11.00
2022-08-12T16:16:03.647Z,11.10
2022-08-12T16:18:38.439Z,11.40
2022-08-12T16:21:10.727Z,11.50
2022-08-12T16:23:58.022Z,11.80
2022-08-12T16:26:32.161Z,12.30
2022-08-12T16:29:09.215Z,12.10
2022-08-12T16:31:43.440Z,12.40
2022-08-12T16:34:25.975Z,12.70
2022-08-12T16:37:07.305Z,12.60
2022-08-12T16:40:01.217Z,13.00
2022-08-12T16:42:27.742Z,13.10
2022-08-12T16:45:02.268Z,13.00
2022-08-12T16:47:57.416Z,13.30
2022-08-12T16:50:30.971Z,13.50
2022-08-12T16:53:02.538Z,13.50
2022-08-12T16:55:42.158Z,13.60
2022-08-12T16:58:25.545Z,13.80
2022-08-12T17:00:57.057Z,14.00
2022-08-12T17:03:28.838Z,14.00
2022-08-12T17:05:56.538Z,14.30
2022-08-12T17:08:29.038Z,14.50
2022-08-12T17:10:59.111Z,14.70
2022-08-12T17:13:26.409Z,15.00
2022-08-12T17:16:05.848Z,15.10
2022-08-12T17:18:43.096Z,15.20
2022-08-12T17:21:17.476Z,15.30
2022-08-12T17:23:53.627Z,15.50
2022-08-12T17:26:28.431Z,15.70
2022-08-12T17:29:00.648Z,16.00
2022-08-12T17:32:00.955Z,16.10
2022-08-12T17:34:38.417Z,16.20
2022-08-12T17:37:06.482Z,16.30
2022-08-12T17:40:15.932Z,16.40
2022-08-12T17:42:35.237Z,16.60
2022-08-12T17:45:18.634Z,16.60
2022-08-12T17:48:01.264Z,16.70
2022-08-12T17:50:33.879Z,17.00
2022-08-12T17:53:02.587Z,17.00
2022-08-12T17:55:40.253Z,17.10
2022-08-12T17:58:12.797Z,17.30
2022-08-12T18:00:45.207Z,17.40
2022-08-12T18:04:05.321Z,17.50
2022-08-12T18:06:08.578Z,17.60
